メインページ
METAR-TAF:

METAR-TAF

空港 :

バンクーバー国際空港

バンクーバー, ブリティッシュコロンビア州, カナダ

緯度: 49-11N, 経度: 123-10W, 海抜: 3m

現時点の気象観測

当レポートは44分前の11:00(UTC)に作成
東/北東の風 9kt
気温 8°C
湿度 93%
気圧 1023 hPa
視程: 12.9km
高度1500ftの雲はほとんどない
高度3100ftの曇り
小雨

METAR: CYVR 141100Z 07009KT 8SM -RA FEW015 OVC031 08/07 A3021 RMK SF1SC8 SF TR /R10/ SLP231

時間: 03:44 (11:44 UTC)

予報

当レポートは3時間6分前の08:38(UTC)に作成
予報は14日の 09時(UTC)から 15日の 12時(UTC)まで有効
の風 10kt
視程: 9.7km
高度800ftの雲はほとんどない
高度1500ftの雲は散在している
高度3000ftの曇り
小雨
14日の 09時(UTC)から 14日の 18時(UTC)まで一時的に
視程: 3.2km
高度800ftの千切れ雲あり
高度1200ftの曇り
にわか雨, 靄
14日の 1800時(UTC)から
の風 10kt
視程: 10km
高度1500ftの雲は散在している
高度3000ftの曇り
14日の 18時(UTC)から 15日の 09時(UTC)まで一時的に
視程: 10km
高度1500ftの千切れ雲あり
高度3000ftの曇り
弱いにわか雨
15日の 0900時(UTC)から
の風 8kt
視程: 9.7km
高度800ftの雲は散在している
高度1500ftの千切れ雲あり
高度3000ftの曇り
小雨

TAF: CYVR 140838Z 1409/1512 08010KT 6SM -RA FEW008 SCT015 OVC030 TEMPO 1409/1418 2SM SHRA BR BKN008 OVC012 FM141800 09010KT P6SM SCT015 OVC030 TEMPO 1418/1509 P6SM -SHRA BKN015 OVC030 FM150900 09008KT 6SM -RA SCT008 BKN015 OVC030 RMK NXT FCST BY 141200Z

4,000以上の空港の気象観測と天気予報(METAR報とTAF報)

利用可能な観測所は地図上に黄色い丸と赤い丸で示す。

丸の上にカーソルを重ねると観測所名を参照できる。

次にクリックすると気象観測と天気予報を参照できる。

マップの切り替え:黒色「×」印の緑ボタンをクリックして拡大、「-」印の緑ボタンをクリックして縮小、緑色の三角印をクリックして隣りの地図に切り替え


METAR-TAF: